createdAt,value
2022-10-10T00:00:50.489Z,12.49
2022-10-10T00:01:50.419Z,12.47
2022-10-10T00:02:51.351Z,12.49
2022-10-10T00:03:50.267Z,12.37
2022-10-10T00:04:50.291Z,12.43
2022-10-10T00:05:50.326Z,12.45
2022-10-10T00:06:50.583Z,12.4
2022-10-10T00:07:50.340Z,12.43
2022-10-10T00:08:50.106Z,12.37
2022-10-10T00:09:50.640Z,12.36
2022-10-10T00:10:50.534Z,12.42
2022-10-10T00:11:50.676Z,12.42
2022-10-10T00:12:51.321Z,12.4
2022-10-10T00:13:50.702Z,12.37
2022-10-10T00:14:50.725Z,12.35
2022-10-10T00:15:53.843Z,12.39
2022-10-10T00:16:50.755Z,12.39
2022-10-10T00:17:50.518Z,12.45
2022-10-10T00:18:50.832Z,12.31
2022-10-10T00:19:50.295Z,12.37
2022-10-10T00:20:50.564Z,12.39
2022-10-10T00:21:50.836Z,12.31
2022-10-10T00:22:51.652Z,12.4
2022-10-10T00:23:50.621Z,12.29
2022-10-10T00:24:50.633Z,12.39
2022-10-10T00:25:50.905Z,12.39
2022-10-10T00:26:50.676Z,12.36
2022-10-10T00:27:50.943Z,12.37
2022-10-10T00:28:50.805Z,12.25
2022-10-10T00:29:50.721Z,12.28
2022-10-10T00:30:50.737Z,12.32
2022-10-10T00:31:50.798Z,12.24
2022-10-10T00:32:51.904Z,12.35
2022-10-10T00:33:51.049Z,12.31
2022-10-10T00:34:51.085Z,12.32
2022-10-10T00:35:51.074Z,12.25
2022-10-10T00:36:51.098Z,12.28
2022-10-10T00:37:51.116Z,12.22
2022-10-10T00:38:51.128Z,12.32
2022-10-10T00:39:51.145Z,12.28
2022-10-10T00:40:50.913Z,12.25
2022-10-10T00:41:50.927Z,12.18
2022-10-10T00:42:52.046Z,12.32
2022-10-10T00:43:51.219Z,12.28
2022-10-10T00:44:50.969Z,12.24
2022-10-10T00:45:51.248Z,12.28
2022-10-10T00:46:50.758Z,12.25
2022-10-10T00:47:51.340Z,12.24
2022-10-10T00:48:51.313Z,12.28
2022-10-10T00:49:51.064Z,12.2
2022-10-10T00:50:51.358Z,12.17
2022-10-10T00:51:51.100Z,12.25
2022-10-10T00:52:52.350Z,12.17
2022-10-10T00:53:51.382Z,12.25
2022-10-10T00:54:51.150Z,12.17
2022-10-10T00:55:51.162Z,12.21
2022-10-10T00:56:51.436Z,12.22
2022-10-10T00:57:51.193Z,12.21
2022-10-10T00:58:51.469Z,12.13
2022-10-10T00:59:50.969Z,12.2
2022-10-10T01:00:51.730Z,12.18
2022-10-10T01:01:51.523Z,12.18
2022-10-10T01:02:52.535Z,12.09
2022-10-10T01:03:51.595Z,12.17
2022-10-10T01:04:51.325Z,12.15
2022-10-10T01:05:51.329Z,12.1
2022-10-10T01:06:51.639Z,12.2
2022-10-10T01:07:51.624Z,12.1
2022-10-10T01:08:51.641Z,12.04
2022-10-10T01:09:51.419Z,12.15
2022-10-10T01:10:51.782Z,12.06
2022-10-10T01:11:51.437Z,12.17
2022-10-10T01:12:52.635Z,12.17
2022-10-10T01:13:51.470Z,12.1
2022-10-10T01:14:51.488Z,12.13
2022-10-10T01:15:51.502Z,12.04
2022-10-10T01:16:51.779Z,12.02
2022-10-10T01:17:51.541Z,12.1
2022-10-10T01:18:51.814Z,12.04
2022-10-10T01:19:51.883Z,12.06
2022-10-10T01:20:51.583Z,12.06
2022-10-10T01:21:51.958Z,12
2022-10-10T01:22:52.709Z,12
2022-10-10T01:23:51.894Z,12
2022-10-10T01:24:51.914Z,12.04
2022-10-10T01:25:51.938Z,11.99
2022-10-10T01:26:51.697Z,12
2022-10-10T01:27:51.967Z,11.9
2022-10-10T01:28:51.730Z,12
2022-10-10T01:29:52.044Z,11.91
2022-10-10T01:30:52.009Z,11.87
2022-10-10T01:31:52.035Z,11.87
2022-10-10T01:32:53.009Z,11.99
2022-10-10T01:33:51.812Z,11.91
2022-10-10T01:34:52.077Z,11.94
2022-10-10T01:35:52.162Z,11.91
2022-10-10T01:36:51.869Z,11.95
2022-10-10T01:37:52.142Z,11.9
2022-10-10T01:38:52.178Z,11.87
2022-10-10T01:39:52.166Z,11.88
2022-10-10T01:40:51.925Z,11.84
2022-10-10T01:41:52.200Z,11.9
2022-10-10T01:42:53.047Z,11.86
2022-10-10T01:43:51.977Z,12
2022-10-10T01:44:52.257Z,11.86
2022-10-10T01:45:52.014Z,11.87
2022-10-10T01:46:52.055Z,11.84
2022-10-10T01:47:51.797Z,11.87
2022-10-10T01:48:52.060Z,11.84
2022-10-10T01:49:52.089Z,11.83
2022-10-10T01:50:52.104Z,11.88
2022-10-10T01:51:52.420Z,11.87
2022-10-10T01:52:53.343Z,11.75
2022-10-10T01:53:52.150Z,11.78
2022-10-10T01:54:52.448Z,11.8
2022-10-10T01:55:52.434Z,11.83
2022-10-10T01:56:51.936Z,11.94
2022-10-10T01:57:52.484Z,11.81
2022-10-10T01:58:52.488Z,11.75
2022-10-10T01:59:52.251Z,11.8
2022-10-10T02:00:52.302Z,11.7
2022-10-10T02:01:52.539Z,11.72
2022-10-10T02:02:53.469Z,11.87
2022-10-10T02:03:52.319Z,11.83
2022-10-10T02:04:52.336Z,11.84
2022-10-10T02:05:52.602Z,11.84
2022-10-10T02:06:52.382Z,11.78
2022-10-10T02:07:52.694Z,11.73
2022-10-10T02:08:52.392Z,11.7
2022-10-10T02:09:52.672Z,11.75
2022-10-10T02:10:52.808Z,11.73
2022-10-10T02:11:52.462Z,11.72
2022-10-10T02:12:53.866Z,11.63
2022-10-10T02:13:52.482Z,11.78
2022-10-10T02:14:52.766Z,11.73
2022-10-10T02:15:52.778Z,11.73
2022-10-10T02:16:52.785Z,11.77
2022-10-10T02:17:52.550Z,11.68
2022-10-10T02:18:52.832Z,11.77
2022-10-10T02:19:52.940Z,11.77
2022-10-10T02:20:52.866Z,11.68
2022-10-10T02:21:52.623Z,11.73
2022-10-10T02:22:53.826Z,11.72
2022-10-10T02:23:52.963Z,11.73
2022-10-10T02:24:52.923Z,11.69
2022-10-10T02:25:52.940Z,11.65
2022-10-10T02:26:52.730Z,11.75
2022-10-10T02:27:52.977Z,11.68
2022-10-10T02:28:52.732Z,11.66
2022-10-10T02:29:53.017Z,11.66
2022-10-10T02:30:52.511Z,11.68
2022-10-10T02:31:53.052Z,11.62
2022-10-10T02:32:54.078Z,11.69
2022-10-10T02:33:53.323Z,11.62
2022-10-10T02:34:53.103Z,11.72
2022-10-10T02:35:53.108Z,11.63
2022-10-10T02:36:52.872Z,11.65
2022-10-10T02:37:52.886Z,11.63
2022-10-10T02:38:53.165Z,11.69
2022-10-10T02:39:53.404Z,11.69
2022-10-10T02:40:53.198Z,11.66
2022-10-10T02:41:52.959Z,11.68
2022-10-10T02:42:54.199Z,11.66
2022-10-10T02:43:53.256Z,11.57
2022-10-10T02:44:53.014Z,11.66
2022-10-10T02:45:53.025Z,11.7
2022-10-10T02:46:53.035Z,11.68
2022-10-10T02:47:53.058Z,11.6
2022-10-10T02:48:53.324Z,11.6
2022-10-10T02:49:53.103Z,11.6
2022-10-10T02:50:53.095Z,11.55
2022-10-10T02:51:53.137Z,11.57
2022-10-10T02:52:54.607Z,11.6
2022-10-10T02:53:53.419Z,11.54
2022-10-10T02:54:53.424Z,11.59
2022-10-10T02:55:53.490Z,11.54
2022-10-10T02:56:53.202Z,11.62
2022-10-10T02:57:53.221Z,11.6
2022-10-10T02:58:53.590Z,11.62
2022-10-10T02:59:52.993Z,11.6
2022-10-10T03:00:53.456Z,11.6
2022-10-10T03:01:53.551Z,11.54
2022-10-10T03:02:54.533Z,11.55
2022-10-10T03:03:53.323Z,11.66
2022-10-10T03:04:53.088Z,11.6
2022-10-10T03:05:53.619Z,11.66
2022-10-10T03:06:53.370Z,11.62
2022-10-10T03:07:53.407Z,11.6
2022-10-10T03:08:53.407Z,11.65
2022-10-10T03:09:53.426Z,11.59
2022-10-10T03:10:53.737Z,11.63
2022-10-10T03:11:53.766Z,11.51
2022-10-10T03:12:54.492Z,11.62
2022-10-10T03:13:53.745Z,11.6
2022-10-10T03:14:53.788Z,11.62
2022-10-10T03:15:53.520Z,11.65
2022-10-10T03:16:53.546Z,11.57
2022-10-10T03:17:53.562Z,11.62
2022-10-10T03:18:53.581Z,11.59
2022-10-10T03:19:53.854Z,11.57
2022-10-10T03:20:53.359Z,11.65
2022-10-10T03:21:53.623Z,11.57
2022-10-10T03:22:55.037Z,11.57
2022-10-10T03:23:53.658Z,11.59
2022-10-10T03:24:53.673Z,11.59
2022-10-10T03:25:53.956Z,11.63
2022-10-10T03:26:53.804Z,11.6
2022-10-10T03:27:54.033Z,11.68
2022-10-10T03:28:53.995Z,11.69
2022-10-10T03:29:54.020Z,11.6
2022-10-10T03:30:54.073Z,11.65
2022-10-10T03:31:54.045Z,11.59
2022-10-10T03:32:54.741Z,11.68
2022-10-10T03:33:53.827Z,11.65
2022-10-10T03:34:54.097Z,11.68
2022-10-10T03:35:53.600Z,11.65
2022-10-10T03:36:54.135Z,11.59
2022-10-10T03:37:53.894Z,11.6
2022-10-10T03:38:53.907Z,11.68
2022-10-10T03:39:53.927Z,11.69
2022-10-10T03:40:54.201Z,11.68
2022-10-10T03:41:53.957Z,11.65
2022-10-10T03:42:55.346Z,11.62
2022-10-10T03:43:54.310Z,11.65
2022-10-10T03:44:54.119Z,11.68
2022-10-10T03:45:54.280Z,11.65
2022-10-10T03:46:54.324Z,11.51
2022-10-10T03:47:53.807Z,11.57
2022-10-10T03:48:54.073Z,11.62
2022-10-10T03:49:54.359Z,11.66
2022-10-10T03:50:54.362Z,11.54
2022-10-10T03:51:54.390Z,11.59
2022-10-10T03:52:55.193Z,11.62
2022-10-10T03:53:54.418Z,11.59
2022-10-10T03:54:54.431Z,11.65
2022-10-10T03:55:54.450Z,11.54
2022-10-10T03:56:54.465Z,11.62
2022-10-10T03:57:54.226Z,11.51
2022-10-10T03:58:53.990Z,11.6
2022-10-10T03:59:54.309Z,11.59
2022-10-10T04:00:54.295Z,11.52
2022-10-10T04:01:54.298Z,11.54
2022-10-10T04:02:55.738Z,11.62
2022-10-10T04:03:56.853Z,11.57
2022-10-10T04:04:54.601Z,11.62
2022-10-10T04:05:54.361Z,11.55
2022-10-10T04:06:54.121Z,11.54
2022-10-10T04:07:54.135Z,11.59
2022-10-10T04:08:54.661Z,11.55
2022-10-10T04:09:54.426Z,11.51
2022-10-10T04:10:54.907Z,11.55
2022-10-10T04:11:54.737Z,11.57
2022-10-10T04:12:55.659Z,11.55
2022-10-10T04:13:54.751Z,11.65
2022-10-10T04:14:54.763Z,11.62
2022-10-10T04:15:54.576Z,11.54
2022-10-10T04:16:54.559Z,11.57
2022-10-10T04:17:54.564Z,11.51
2022-10-10T04:18:54.870Z,11.59
2022-10-10T04:19:54.847Z,11.57
2022-10-10T04:20:54.614Z,11.52
2022-10-10T04:21:54.881Z,11.59
2022-10-10T04:22:55.880Z,11.6
2022-10-10T04:23:54.654Z,11.57
2022-10-10T04:24:54.933Z,11.6
2022-10-10T04:25:54.955Z,11.63
2022-10-10T04:26:54.962Z,11.6
2022-10-10T04:28:00.954Z,11.55
2022-10-10T04:28:55.007Z,11.6
2022-10-10T04:29:54.755Z,11.55
2022-10-10T04:30:55.049Z,11.55
2022-10-10T04:31:55.109Z,11.55
2022-10-10T04:32:55.981Z,11.55
2022-10-10T04:33:54.827Z,11.52
2022-10-10T04:34:55.126Z,11.54
2022-10-10T04:35:55.126Z,11.55
2022-10-10T04:36:54.891Z,11.54
2022-10-10T04:37:54.891Z,11.52
2022-10-10T04:38:54.907Z,11.54
2022-10-10T04:39:54.924Z,11.57
2022-10-10T04:40:54.951Z,11.63
2022-10-10T04:41:55.216Z,11.52
2022-10-10T04:42:55.817Z,11.57
2022-10-10T04:43:55.260Z,11.52
2022-10-10T04:44:55.264Z,11.54
2022-10-10T04:45:55.274Z,11.54
2022-10-10T04:46:55.305Z,11.51
2022-10-10T04:47:55.375Z,11.54
2022-10-10T04:48:54.814Z,11.54
2022-10-10T04:49:54.829Z,11.6
2022-10-10T04:50:55.143Z,11.6
2022-10-10T04:51:55.146Z,11.57
2022-10-10T04:52:56.021Z,11.57
2022-10-10T04:53:55.623Z,11.57
2022-10-10T04:54:55.432Z,11.57
2022-10-10T04:55:55.201Z,11.59
2022-10-10T04:56:55.204Z,11.57
2022-10-10T04:57:55.494Z,11.63
2022-10-10T04:58:55.236Z,11.55
2022-10-10T04:59:55.524Z,11.57
2022-10-10T05:00:55.279Z,11.6
2022-10-10T05:01:58.151Z,11.57
2022-10-10T05:02:56.652Z,11.57
2022-10-10T05:03:55.633Z,11.57
2022-10-10T05:04:55.613Z,11.54
2022-10-10T05:05:55.387Z,11.6
2022-10-10T05:06:55.668Z,11.54
2022-10-10T05:08:00.054Z,11.57
2022-10-10T05:08:55.430Z,11.54
2022-10-10T05:09:55.449Z,11.57
2022-10-10T05:10:56.050Z,11.51
2022-10-10T05:11:55.211Z,11.55
2022-10-10T05:12:56.663Z,11.57
2022-10-10T05:13:55.743Z,11.57
2022-10-10T05:14:55.520Z,11.65
2022-10-10T05:15:55.790Z,11.59
2022-10-10T05:16:55.537Z,11.57
2022-10-10T05:17:55.562Z,11.63
2022-10-10T05:18:55.835Z,11.59
2022-10-10T05:19:55.939Z,11.59
2022-10-10T05:20:58.672Z,11.57
2022-10-10T05:21:55.639Z,11.59
2022-10-10T05:22:56.663Z,11.55
2022-10-10T05:23:55.658Z,11.55
2022-10-10T05:24:55.941Z,11.55
2022-10-10T05:25:55.955Z,11.5
2022-10-10T05:26:55.967Z,11.55
2022-10-10T05:27:55.983Z,11.55
2022-10-10T05:28:56.006Z,11.57
2022-10-10T05:29:56.022Z,11.55
2022-10-10T05:30:56.028Z,11.55
2022-10-10T05:31:56.061Z,11.55
2022-10-10T05:32:56.663Z,11.57
2022-10-10T05:33:56.091Z,11.55
2022-10-10T05:34:56.099Z,11.55
2022-10-10T05:35:56.165Z,11.57
2022-10-10T05:36:56.135Z,11.54
2022-10-10T05:37:56.249Z,11.57
2022-10-10T05:38:55.940Z,11.54
2022-10-10T05:39:59.613Z,11.57
2022-10-10T05:40:55.946Z,11.52
2022-10-10T05:41:56.221Z,11.59
2022-10-10T05:42:56.673Z,11.52
2022-10-10T05:43:55.990Z,11.6
2022-10-10T05:44:56.276Z,11.57
2022-10-10T05:45:56.287Z,11.59
2022-10-10T05:46:56.051Z,11.52
2022-10-10T05:47:56.327Z,11.51
2022-10-10T05:48:56.080Z,11.57
2022-10-10T05:49:56.094Z,11.52
2022-10-10T05:50:56.113Z,11.54
2022-10-10T05:51:56.480Z,11.55
2022-10-10T05:52:57.107Z,11.55
2022-10-10T05:53:56.418Z,11.52
2022-10-10T05:54:56.201Z,11.55
2022-10-10T05:55:56.459Z,11.5
2022-10-10T05:56:56.479Z,11.54
2022-10-10T05:57:56.236Z,11.57
2022-10-10T05:58:56.254Z,11.54
2022-10-10T05:59:56.000Z,11.54
2022-10-10T06:00:56.271Z,11.51
2022-10-10T06:01:56.558Z,11.51
2022-10-10T06:02:57.701Z,11.55
2022-10-10T06:03:56.591Z,11.6
2022-10-10T06:04:56.350Z,11.52
2022-10-10T06:05:56.620Z,11.55
2022-10-10T06:06:56.634Z,11.55
2022-10-10T06:08:14.571Z,11.57
2022-10-10T06:08:56.676Z,11.6
2022-10-10T06:09:56.702Z,11.57
2022-10-10T06:10:56.886Z,11.52
2022-10-10T06:11:56.718Z,11.54
2022-10-10T06:12:57.122Z,11.57
2022-10-10T06:13:56.914Z,11.5
2022-10-10T06:14:56.516Z,11.55
2022-10-10T06:15:56.525Z,11.65
2022-10-10T06:16:56.553Z,11.57
2022-10-10T06:17:56.819Z,11.63
2022-10-10T06:18:56.612Z,11.57
2022-10-10T06:19:56.857Z,11.6
2022-10-10T06:20:56.630Z,11.62
2022-10-10T06:21:56.884Z,11.55
2022-10-10T06:22:57.492Z,11.6
2022-10-10T06:23:56.978Z,11.66
2022-10-10T06:24:58.057Z,11.59
2022-10-10T06:25:56.955Z,11.51
2022-10-10T06:26:56.756Z,11.59
2022-10-10T06:27:56.999Z,11.65
2022-10-10T06:28:57.022Z,11.65
2022-10-10T06:29:56.762Z,11.69
2022-10-10T06:30:57.039Z,11.65
2022-10-10T06:31:56.826Z,11.7
2022-10-10T06:33:01.949Z,11.63
2022-10-10T06:33:57.087Z,11.66
2022-10-10T06:34:57.111Z,11.77
2022-10-10T06:35:57.122Z,11.78
2022-10-10T06:36:57.140Z,11.83
2022-10-10T06:37:56.914Z,11.69
2022-10-10T06:38:57.170Z,11.84
2022-10-10T06:39:57.258Z,11.78
2022-10-10T06:41:02.874Z,11.9
2022-10-10T06:41:56.962Z,11.87
2022-10-10T06:42:57.988Z,11.78
2022-10-10T06:43:57.257Z,11.83
2022-10-10T06:44:57.274Z,11.83
2022-10-10T06:45:56.781Z,11.84
2022-10-10T06:46:57.311Z,11.84
2022-10-10T06:47:57.062Z,11.83
2022-10-10T06:48:57.342Z,11.83
2022-10-10T06:49:57.091Z,11.81
2022-10-10T06:50:57.372Z,11.87
2022-10-10T06:51:57.130Z,11.87
2022-10-10T06:52:57.928Z,11.88
2022-10-10T06:53:56.913Z,11.9
2022-10-10T06:54:57.455Z,11.94
2022-10-10T06:55:57.512Z,12
2022-10-10T06:56:57.216Z,11.86
2022-10-10T06:57:57.238Z,11.91
2022-10-10T06:58:57.547Z,12
2022-10-10T06:59:57.020Z,12.07
2022-10-10T07:00:57.287Z,12.02
2022-10-10T07:01:57.500Z,12.04
2022-10-10T07:02:57.612Z,12.04
2022-10-10T07:03:57.340Z,12.07
2022-10-10T07:04:57.621Z,12.07
2022-10-10T07:05:57.368Z,12.04
2022-10-10T07:06:57.647Z,12.12
2022-10-10T07:07:57.403Z,12.04
2022-10-10T07:08:57.162Z,12.12
2022-10-10T07:09:57.687Z,12.1
2022-10-10T07:10:57.818Z,12.03
2022-10-10T07:11:57.523Z,12.18
2022-10-10T07:12:58.269Z,12.1
2022-10-10T07:13:57.761Z,12.18
2022-10-10T07:14:57.807Z,12.17
2022-10-10T07:15:57.796Z,12.2
2022-10-10T07:16:57.807Z,12.24
2022-10-10T07:17:59.330Z,12.31
2022-10-10T07:18:57.596Z,12.31
2022-10-10T07:19:57.631Z,12.29
2022-10-10T07:20:57.626Z,12.22
2022-10-10T07:21:57.898Z,12.25
2022-10-10T07:22:58.467Z,12.31
2022-10-10T07:23:57.941Z,12.32
2022-10-10T07:24:57.435Z,12.37
2022-10-10T07:25:57.718Z,12.39
2022-10-10T07:27:11.184Z,12.32
2022-10-10T07:27:57.999Z,12.39
2022-10-10T07:28:57.765Z,12.49
2022-10-10T07:29:57.702Z,12.43
2022-10-10T07:30:57.823Z,12.43
2022-10-10T07:31:58.101Z,12.45
2022-10-10T07:32:58.302Z,12.5
2022-10-10T07:33:57.851Z,12.5
2022-10-10T07:34:58.123Z,12.53
2022-10-10T07:35:58.136Z,12.5
2022-10-10T07:36:57.643Z,12.57
2022-10-10T07:37:57.653Z,12.6
2022-10-10T07:38:57.935Z,12.61
2022-10-10T07:39:57.958Z,12.64
2022-10-10T07:40:58.231Z,12.61
2022-10-10T07:41:57.979Z,12.75
2022-10-10T07:42:58.800Z,12.79
2022-10-10T07:43:58.286Z,12.79
2022-10-10T07:44:58.038Z,12.78
2022-10-10T07:45:58.468Z,12.7
2022-10-10T07:46:58.353Z,12.78
2022-10-10T07:47:58.793Z,12.7
2022-10-10T07:48:58.141Z,12.79
2022-10-10T07:49:58.194Z,12.73
2022-10-10T07:50:58.142Z,12.83
2022-10-10T07:52:04.204Z,12.8
2022-10-10T07:52:58.188Z,12.78
2022-10-10T07:53:58.222Z,12.86
2022-10-10T07:54:58.209Z,12.87
2022-10-10T07:55:57.971Z,12.93
2022-10-10T07:56:58.241Z,12.9
2022-10-10T07:57:59.499Z,12.98
2022-10-10T07:58:58.329Z,13.01
2022-10-10T07:59:58.294Z,13.04
2022-10-10T08:00:58.319Z,13.05
2022-10-10T08:01:58.866Z,13.04
2022-10-10T08:02:58.369Z,13.08
2022-10-10T08:03:58.365Z,13.13
2022-10-10T08:04:58.633Z,13.16
2022-10-10T08:05:58.654Z,13.12
2022-10-10T08:06:58.420Z,13.15
2022-10-10T08:07:59.255Z,13.08
2022-10-10T08:08:58.704Z,13.16
2022-10-10T08:09:58.469Z,13.28
2022-10-10T08:10:58.535Z,13.22
2022-10-10T08:11:58.493Z,13.18
2022-10-10T08:12:58.517Z,13.23
2022-10-10T08:13:58.800Z,13.28
2022-10-10T08:14:58.895Z,13.15
2022-10-10T08:15:58.844Z,13.28
2022-10-10T08:16:58.851Z,13.28
2022-10-10T08:17:59.299Z,13.37
2022-10-10T08:18:58.653Z,13.31
2022-10-10T08:19:58.664Z,13.25
2022-10-10T08:20:58.921Z,13.3
2022-10-10T08:21:58.675Z,13.41
2022-10-10T08:22:59.293Z,13.41
2022-10-10T08:23:58.715Z,13.35
2022-10-10T08:24:58.728Z,13.41
2022-10-10T08:25:59.005Z,13.47
2022-10-10T08:26:59.010Z,13.39
2022-10-10T08:27:58.786Z,13.47
2022-10-10T08:28:59.043Z,13.42
2022-10-10T08:29:59.070Z,13.52
2022-10-10T08:31:00.946Z,13.42
2022-10-10T08:31:59.099Z,13.52
2022-10-10T08:32:58.891Z,13.47
2022-10-10T08:33:58.882Z,13.38
2022-10-10T08:34:59.187Z,13.35
2022-10-10T08:35:58.913Z,13.37
2022-10-10T08:36:58.937Z,13.44
2022-10-10T08:37:59.215Z,13.39
2022-10-10T08:38:59.231Z,13.47
2022-10-10T08:39:59.253Z,13.39
2022-10-10T08:40:59.007Z,13.39
2022-10-10T08:41:59.037Z,13.53
2022-10-10T08:42:59.955Z,13.41
2022-10-10T08:43:59.063Z,13.39
2022-10-10T08:44:59.073Z,13.39
2022-10-10T08:45:59.369Z,13.42
2022-10-10T08:46:59.320Z,13.44
2022-10-10T08:47:59.399Z,13.42
2022-10-10T08:48:59.403Z,13.53
2022-10-10T08:49:59.515Z,13.39
2022-10-10T08:50:59.566Z,13.42
2022-10-10T08:51:59.456Z,13.47
2022-10-10T08:52:59.633Z,13.46
2022-10-10T08:53:59.497Z,13.5
2022-10-10T08:55:03.046Z,13.38
2022-10-10T08:55:59.532Z,13.46
2022-10-10T08:56:59.282Z,13.46
2022-10-10T08:57:59.557Z,13.47
2022-10-10T08:58:59.331Z,13.5
2022-10-10T08:59:59.366Z,13.5
2022-10-10T09:00:59.837Z,13.53
2022-10-10T09:02:38.199Z,13.46
2022-10-10T09:03:02.983Z,13.56
2022-10-10T09:04:02.132Z,13.59
2022-10-10T09:05:02.149Z,13.57
2022-10-10T09:06:02.451Z,13.42
2022-10-10T09:07:02.180Z,13.53
2022-10-10T09:08:02.452Z,13.68
2022-10-10T09:09:02.510Z,13.54
2022-10-10T09:10:02.258Z,13.54
2022-10-10T09:11:03.105Z,13.54
2022-10-10T09:12:02.525Z,13.53
2022-10-10T09:13:02.291Z,13.59
2022-10-10T09:14:02.552Z,13.62
2022-10-10T09:15:07.403Z,13.6
2022-10-10T09:16:02.609Z,13.57
2022-10-10T09:17:02.352Z,13.57
2022-10-10T09:18:02.692Z,13.68
2022-10-10T09:19:02.392Z,13.54
2022-10-10T09:20:02.702Z,13.57
2022-10-10T09:21:02.913Z,13.65
2022-10-10T09:22:02.736Z,13.67
2022-10-10T09:23:02.466Z,13.6
2022-10-10T09:24:02.487Z,13.68
2022-10-10T09:25:02.868Z,13.68
2022-10-10T09:26:05.240Z,13.68
2022-10-10T09:27:02.536Z,13.7
2022-10-10T09:28:02.558Z,13.71
2022-10-10T09:29:02.310Z,13.67
2022-10-10T09:30:02.608Z,13.78
2022-10-10T09:31:03.313Z,13.65
2022-10-10T09:32:02.623Z,13.74
2022-10-10T09:33:02.655Z,13.74
2022-10-10T09:34:02.978Z,13.83
2022-10-10T09:35:02.685Z,13.79
2022-10-10T09:36:02.702Z,13.72
2022-10-10T09:37:04.053Z,13.74
2022-10-10T09:38:03.013Z,13.83
2022-10-10T09:39:02.500Z,13.77
2022-10-10T09:40:03.020Z,13.77
2022-10-10T09:41:03.080Z,13.77
2022-10-10T09:42:03.046Z,13.81
2022-10-10T09:43:03.071Z,13.92
2022-10-10T09:44:03.108Z,13.93
2022-10-10T09:45:03.107Z,13.85
2022-10-10T09:46:02.875Z,13.87
2022-10-10T09:47:02.950Z,13.87
2022-10-10T09:48:02.918Z,13.96
2022-10-10T09:49:02.676Z,13.93
2022-10-10T09:51:04.086Z,13.99
2022-10-10T09:52:02.978Z,13.99
2022-10-10T09:53:03.014Z,14.04
2022-10-10T09:54:03.134Z,14.08
2022-10-10T09:55:02.888Z,14.03
2022-10-10T09:56:03.090Z,13.99
2022-10-10T09:57:03.079Z,14.04
2022-10-10T09:58:03.340Z,14.04
2022-10-10T09:59:03.361Z,14.04
2022-10-10T10:00:09.015Z,14.1
2022-10-10T10:01:04.541Z,14
2022-10-10T10:02:03.412Z,14.1
2022-10-10T10:03:03.177Z,14.11
2022-10-10T10:04:32.274Z,14.07
2022-10-10T10:05:03.225Z,14.17
2022-10-10T10:06:03.557Z,14.08
2022-10-10T10:07:03.502Z,14.11
2022-10-10T10:08:03.526Z,14.03
2022-10-10T10:09:03.289Z,14.17
2022-10-10T10:10:03.388Z,14.17
2022-10-10T10:11:04.764Z,14.12
2022-10-10T10:12:03.087Z,14.12
2022-10-10T10:13:03.612Z,14.2
2022-10-10T10:14:03.630Z,14.2
2022-10-10T10:15:03.402Z,14.18
2022-10-10T10:16:03.652Z,14.22
2022-10-10T10:17:03.170Z,14.15
2022-10-10T10:18:03.694Z,14.25
2022-10-10T10:19:03.463Z,14.23
2022-10-10T10:20:05.536Z,14.23
2022-10-10T10:21:04.354Z,14.2
2022-10-10T10:22:03.947Z,14.23
2022-10-10T10:23:03.559Z,14.32
2022-10-10T10:24:03.297Z,14.25
2022-10-10T10:25:03.619Z,14.18
2022-10-10T10:26:04.969Z,14.22
2022-10-10T10:27:03.883Z,14.3
2022-10-10T10:28:03.619Z,14.2
2022-10-10T10:29:03.951Z,14.3
2022-10-10T10:30:03.913Z,14.29
2022-10-10T10:31:03.731Z,14.33
2022-10-10T10:32:03.959Z,14.29
2022-10-10T10:33:03.711Z,14.32
2022-10-10T10:34:03.555Z,14.29
2022-10-10T10:35:04.008Z,14.33
2022-10-10T10:36:04.591Z,14.32
2022-10-10T10:37:04.153Z,14.29
2022-10-10T10:38:04.204Z,14.44
2022-10-10T10:39:03.818Z,14.33
2022-10-10T10:40:04.096Z,14.37
2022-10-10T10:41:03.858Z,14.28
2022-10-10T10:42:03.907Z,14.44
2022-10-10T10:43:03.907Z,14.26
2022-10-10T10:44:03.912Z,14.47
2022-10-10T10:45:04.202Z,14.47
2022-10-10T10:46:04.639Z,14.36
2022-10-10T10:47:04.230Z,14.45
2022-10-10T10:48:04.251Z,14.35
2022-10-10T10:49:04.275Z,14.37
2022-10-10T10:50:03.793Z,14.44
2022-10-10T10:51:05.024Z,14.43
2022-10-10T10:52:04.319Z,14.41
2022-10-10T10:53:04.353Z,14.4
2022-10-10T10:54:04.152Z,14.5
2022-10-10T10:55:04.118Z,14.47
2022-10-10T10:56:04.133Z,14.4
2022-10-10T10:57:40.782Z,14.51
2022-10-10T11:01:20.028Z,14.51
2022-10-10T11:02:09.817Z,14.58
2022-10-10T11:05:30.973Z,14.62
2022-10-10T11:05:49.726Z,14.45
2022-10-10T11:07:22.665Z,14.55
2022-10-10T11:07:49.439Z,14.58
2022-10-10T11:08:48.997Z,14.62
2022-10-10T11:09:55.351Z,14.5
2022-10-10T11:10:49.288Z,14.6
2022-10-10T11:11:49.563Z,14.6
2022-10-10T11:12:49.901Z,14.6
2022-10-10T11:13:49.606Z,14.54
2022-10-10T11:14:49.641Z,14.63
2022-10-10T11:16:30.212Z,14.65
2022-10-10T11:17:01.601Z,14.62
2022-10-10T11:18:01.624Z,14.66
2022-10-10T11:19:01.626Z,14.53
2022-10-10T11:20:01.460Z,14.59
2022-10-10T11:21:02.986Z,14.65
2022-10-10T11:22:01.692Z,14.68
2022-10-10T11:23:04.192Z,14.6
2022-10-10T11:24:01.476Z,14.68
2022-10-10T11:25:01.789Z,14.7
2022-10-10T11:26:01.760Z,14.66
2022-10-10T11:27:01.792Z,14.66
2022-10-10T11:28:01.553Z,14.73
2022-10-10T11:29:01.807Z,14.63
2022-10-10T11:30:01.889Z,14.65
2022-10-10T11:31:03.521Z,14.72
2022-10-10T11:32:02.009Z,14.79
2022-10-10T11:33:01.905Z,14.73
2022-10-10T11:34:02.475Z,14.79
2022-10-10T11:35:01.932Z,14.81
2022-10-10T11:36:02.801Z,14.79
2022-10-10T11:37:01.708Z,14.73
2022-10-10T11:38:01.468Z,14.88
2022-10-10T11:39:01.903Z,14.85
2022-10-10T11:40:01.773Z,14.81
2022-10-10T11:41:02.087Z,14.86
2022-10-10T11:42:02.076Z,14.88
2022-10-10T11:43:01.813Z,14.81
2022-10-10T11:44:02.090Z,14.85
2022-10-10T11:45:02.105Z,14.88
2022-10-10T11:46:08.142Z,14.84
2022-10-10T11:47:01.631Z,14.94
2022-10-10T11:48:02.175Z,14.91
2022-10-10T11:49:01.670Z,14.94
2022-10-10T11:50:01.680Z,15.04
2022-10-10T11:51:02.221Z,15.02
2022-10-10T11:52:35.938Z,15.03
2022-10-10T11:53:02.261Z,15.02
2022-10-10T11:54:02.278Z,15.04
2022-10-10T11:55:02.295Z,15.1
2022-10-10T11:56:03.438Z,15.09
2022-10-10T11:57:02.391Z,15.06
2022-10-10T11:58:02.350Z,15.11
2022-10-10T11:59:02.110Z,15.17
2022-10-10T12:00:02.386Z,15.15
2022-10-10T12:01:02.417Z,15.19
2022-10-10T12:02:03.504Z,15.22
2022-10-10T12:03:02.183Z,15.19
2022-10-10T12:04:02.200Z,15.21
2022-10-10T12:05:02.505Z,15.28
2022-10-10T12:06:03.596Z,15.37
2022-10-10T12:07:02.269Z,15.29
2022-10-10T12:08:02.293Z,15.39
2022-10-10T12:09:02.559Z,15.31
2022-10-10T12:10:02.317Z,15.4
2022-10-10T12:11:02.335Z,15.43
2022-10-10T12:12:02.352Z,15.39
2022-10-10T12:13:02.768Z,15.43
2022-10-10T12:14:02.657Z,15.49
2022-10-10T12:15:02.670Z,15.52
2022-10-10T12:16:03.265Z,15.47
2022-10-10T12:17:02.453Z,15.52
2022-10-10T12:18:02.499Z,15.55
2022-10-10T12:19:02.750Z,15.59
2022-10-10T12:20:02.764Z,15.61
2022-10-10T12:21:02.925Z,15.62
2022-10-10T12:22:02.786Z,15.61
2022-10-10T12:23:02.921Z,15.67
2022-10-10T12:24:02.834Z,15.59
2022-10-10T12:25:02.898Z,15.67
2022-10-10T12:26:03.965Z,15.65
2022-10-10T12:27:02.640Z,15.67
2022-10-10T12:28:02.908Z,15.76
2022-10-10T12:29:02.920Z,15.67
2022-10-10T12:30:02.707Z,15.59
2022-10-10T12:31:04.644Z,15.76
2022-10-10T12:32:02.933Z,15.7
2022-10-10T12:33:02.850Z,15.82
2022-10-10T12:34:02.888Z,15.8
2022-10-10T12:35:03.044Z,15.77
2022-10-10T12:36:03.688Z,15.79
2022-10-10T12:37:09.025Z,15.86
2022-10-10T12:38:02.845Z,15.86
2022-10-10T12:39:05.645Z,15.95
2022-10-10T12:40:02.887Z,15.88
2022-10-10T12:41:03.896Z,15.92
2022-10-10T12:42:03.229Z,15.88
2022-10-10T12:43:03.193Z,16
2022-10-10T12:44:02.956Z,15.91
2022-10-10T12:45:03.291Z,15.98
2022-10-10T12:46:03.000Z,16.01
2022-10-10T12:47:08.143Z,16.13
2022-10-10T12:48:11.554Z,16.17
2022-10-10T12:49:03.319Z,16.12
2022-10-10T12:50:03.093Z,16.09
2022-10-10T12:51:03.962Z,16.24
2022-10-10T12:52:03.111Z,16.2
2022-10-10T12:53:03.394Z,16.24
2022-10-10T12:54:03.406Z,16.32
2022-10-10T12:55:09.364Z,16.17
2022-10-10T12:56:03.269Z,16.31
2022-10-10T12:57:03.207Z,16.39
2022-10-10T12:58:03.235Z,16.33
2022-10-10T12:59:03.543Z,16.31
2022-10-10T13:00:07.082Z,16.38
2022-10-10T13:01:04.430Z,16.47
2022-10-10T13:02:03.788Z,16.54
2022-10-10T13:03:03.336Z,16.49